King of Scandinavia — OVOL2 — position and weather

sailwx.info

Track history (hours):
 
Tides and Currents Weather Stations Pressure Air Temp Water Temp Dewpoint Dewpoint Depression Visibility Wind Speed Wind Dir Waves Ship Positions

King of Scandinavia

Ship's website: http://www.dfds.co.uk/DSW/EN/OnBoard/na/KING.htm

Last reported at 2014-Oct-25 16:29 UTC. Time now 2014-Oct-25 23:02 UTC.
Position N 52°37' E 004°16'.

Length 166 m; beam 27.6 m; draft 6.2 m.

Type: Passenger vessel. MMSI: 220449000.

Date/timePositionNaut miles runAvg speedWind from/ knotsBaromVisibWave heightAir tempDewpointWater temp
2014-Oct-25 16:29N 52°37' E 004°16'1414.7
2014-Oct-25 15:33N 52°28' E 004°33'1 1.3
2014-Oct-25 14:32N 52°28' E 004°35'0 0.0
2014-Oct-25 13:32N 52°28' E 004°35'0 0.0
2014-Oct-25 12:32N 52°28' E 004°35'0 0.0
2014-Oct-25 11:32N 52°28' E 004°35'0 0.0
2014-Oct-25 10:32N 52°28' E 004°35'0 0.0
2014-Oct-25 09:32N 52°28' E 004°35'0 0.0
2014-Oct-25 08:32N 52°28' E 004°35'0 0.0
2014-Oct-25 07:33N 52°28' E 004°35'1211.7
2014-Oct-25 06:33N 52°35' E 004°19'2517.6
2014-Oct-25 05:07N 52°51' E 003°48'1017.8
2014-Oct-25 04:33N 52°57' E 003°35'12417.5
2014-Oct-24 21:28N 54°11' E 000°48'1617.3
2014-Oct-24 20:33N 54°20' E 000°25'1817.5
2014-Oct-24 19:33N 54°29' W 000°00'1817.9
2014-Oct-24 18:33N 54°39' W 000°26'2018.4
2014-Oct-24 17:29N 54°50' W 000°55'1818.8
2014-Oct-24 16:30N 54°60' W 001°21'4 0.4
2014-Oct-24 07:22N 54°58' W 001°15'1417.8
2014-Oct-24 06:33N 54°51' W 000°54'1917.3
2014-Oct-24 05:29N 54°41' W 000°27'1415.2
2014-Oct-24 04:34N 54°33' W 000°07'1414.2
2014-Oct-24 03:34N 54°25' E 000°13'1414.2
2014-Oct-24 02:32N 54°17' E 000°34'16716.5
2014-Oct-23 16:26N 52°36' E 004°18'1314.9
2014-Oct-23 15:33N 52°28' E 004°35'0 0.4
2014-Oct-23 14:31N 52°28' E 004°35'0 0.0
2014-Oct-23 13:31N 52°28' E 004°35'0 0.0
2014-Oct-23 12:31N 52°28' E 004°35'0 0.0
2014-Oct-23 11:31N 52°28' E 004°35'0 0.0
2014-Oct-23 10:31N 52°28' E 004°35'0 0.0
2014-Oct-23 09:31N 52°28' E 004°35'0 0.0
2014-Oct-23 08:31N 52°28' E 004°35'0 0.0
2014-Oct-23 07:33N 52°28' E 004°35'1111.0
2014-Oct-23 06:33N 52°34' E 004°20'1716.9
2014-Oct-23 05:33N 52°45' E 003°59'1817.7
2014-Oct-23 04:32N 52°57' E 003°36'12618.0
2014-Oct-22 21:33N 54°12' E 000°47'1716.8
2014-Oct-22 20:33N 54°21' E 000°22'1717.0
2014-Oct-22 19:33N 54°30' W 000°02'1717.2
2014-Oct-22 18:33N 54°39' W 000°27'1817.6
2014-Oct-22 17:33N 54°49' W 000°53'1817.8
2014-Oct-22 16:33N 54°59' W 001°19'14 1.9
2014-Oct-22 09:26N 54°50' W 001°00'2619.1
2014-Oct-22 08:06N 54°32' W 000°29'1019.1
2014-Oct-22 07:34N 54°25' W 000°17'1918.6
2014-Oct-22 06:33N 54°10' E 000°03'1717.2
2014-Oct-22 05:33N 53°57' E 000°23'1515.2
2014-Oct-22 04:33N 53°46' E 000°39'4615.1
2014-Oct-22 01:29N 53°08' E 001°24'1617.4
2014-Oct-22 00:33N 52°54' E 001°39'8312.7
2014-Oct-21 18:04N 52°32' E 003°50'714.5
2014-Oct-21 17:33N 52°31' E 004°02'1414.3
2014-Oct-21 16:34N 52°29' E 004°25'6 5.6
2014-Oct-21 15:29N 52°28' E 004°35'0 0.0
2014-Oct-21 14:32N 52°28' E 004°35'0 0.0
2014-Oct-21 13:32N 52°28' E 004°35'0 0.0
2014-Oct-21 12:32N 52°28' E 004°35'0 0.0
2014-Oct-21 11:32N 52°28' E 004°35'0 0.0
2014-Oct-21 10:32N 52°28' E 004°35'0 0.0
2014-Oct-21 09:32N 52°28' E 004°35'0 0.0
2014-Oct-21 08:32N 52°28' E 004°35'0 0.0
2014-Oct-21 07:33N 52°28' E 004°35'8 8.2
2014-Oct-21 06:33N 52°32' E 004°23'16417.9
2014-Oct-20 21:23N 54°12' E 000°46'1417.1
2014-Oct-20 20:33N 54°20' E 000°26'1717.2
2014-Oct-20 19:33N 54°29' E 000°01'1717.3
2014-Oct-20 18:33N 54°39' W 000°24'1817.6
2014-Oct-20 17:33N 54°48' W 000°50'1817.8
2014-Oct-20 16:32N 54°58' W 001°16'2 0.3
2014-Oct-20 07:15N 54°57' W 001°12'1014.9
2014-Oct-20 06:33N 54°52' W 000°57'1915.2
2014-Oct-20 05:17N 54°41' W 000°29'1115.3
2014-Oct-20 04:33N 54°35' W 000°13'1717.0
2014-Oct-20 03:33N 54°26' E 000°11'1716.6
2014-Oct-20 02:33N 54°16' E 000°35'16216.2
2014-Oct-19 16:33N 52°39' E 004°12'1515.2
2014-Oct-19 15:34N 52°28' E 004°31'3 2.8
2014-Oct-19 14:31N 52°28' E 004°35'0 0.0
2014-Oct-19 13:31N 52°28' E 004°35'0 0.0
2014-Oct-19 12:31N 52°28' E 004°35'0 0.0
2014-Oct-19 11:28N 52°28' E 004°35'0 0.0
2014-Oct-19 10:28N 52°28' E 004°35'0 0.0
2014-Oct-19 09:31N 52°28' E 004°35'0 0.0
2014-Oct-19 08:31N 52°28' E 004°35'1 0.9
2014-Oct-19 07:34N 52°28' E 004°34'1514.7
2014-Oct-19 06:34N 52°37' E 004°15'236159.8
2014-Oct-19 05:05N 54°56' W 001°09'7810.2
2014-Oct-18 21:29N 54°13' E 000°43'1617.1
2014-Oct-18 20:34N 54°22' E 000°21'1716.9
2014-Oct-18 19:33N 54°31' W 000°04'1717.0
2014-Oct-18 18:34N 54°40' W 000°28'1717.1
2014-Oct-18 17:33N 54°50' W 000°53'1717.2
2014-Oct-18 16:32N 54°59' W 001°19'5 0.5
2014-Oct-18 07:16N 54°57' W 001°11'1216.6
2014-Oct-18 06:33N 54°51' W 000°55'1918.5
2014-Oct-18 05:31N 54°40' W 000°27'1818.6
2014-Oct-18 04:33N 54°30' W 000°01'1818.1
2014-Oct-18 03:33N 54°20' E 000°25'15815.8
2014-Oct-17 17:33N 52°46' E 003°58'1515.1
2014-Oct-17 16:33N 52°36' E 004°16'1413.8
2014-Oct-17 15:33N 52°28' E 004°34'0 0.4
2014-Oct-17 14:33N 52°28' E 004°35'0 0.0
2014-Oct-17 13:33N 52°28' E 004°35'0 0.0
2014-Oct-17 12:33N 52°28' E 004°35'0 0.0
2014-Oct-17 11:33N 52°28' E 004°35'0 0.0
2014-Oct-17 10:33N 52°28' E 004°35'0 0.0
2014-Oct-17 09:33N 52°28' E 004°35'0 0.0
2014-Oct-17 08:33N 52°28' E 004°35'0 0.0
2014-Oct-17 07:34N 52°28' E 004°35'1212.1
2014-Oct-17 06:33N 52°35' E 004°19'1717.2
2014-Oct-17 05:33N 52°47' E 003°58'14518.2
2014-Oct-16 21:33N 54°14' E 000°43'1818.2
2014-Oct-16 20:33N 54°24' E 000°17'1818.0
2014-Oct-16 19:33N 54°33' W 000°10'1817.8
2014-Oct-16 18:33N 54°43' W 000°36'1919.4
2014-Oct-16 17:33N 54°53' W 001°04'3 0.3
2014-Oct-16 07:14N 54°56' W 001°08'1217.8
2014-Oct-16 06:33N 54°49' W 000°51'1818.0
2014-Oct-16 05:33N 54°39' W 000°25'1818.3
2014-Oct-16 04:33N 54°29' E 000°01'1918.6
2014-Oct-16 03:33N 54°19' E 000°28'1716.7
2014-Oct-16 02:33N 54°10' E 000°52'13815.3
2014-Oct-15 17:33N 52°47' E 003°57'1515.1
2014-Oct-15 16:33N 52°37' E 004°16'  
Track history (hours):
 
Tides and Currents Weather Stations Pressure Air Temp Water Temp Dewpoint Dewpoint Depression Visibility Wind Speed Wind Dir Waves Ship Positions

King of Scandinavia

Ship's website: http://www.dfds.co.uk/DSW/EN/OnBoard/na/KING.htm

Last reported at 2014-Oct-25 16:29 UTC. Time now 2014-Oct-25 23:02 UTC.
Position N 52°37' E 004°16'.

Length 166 m; beam 27.6 m; draft 6.2 m.

Type: Passenger vessel. MMSI: 220449000.

Date/timePositionNaut miles runAvg speedWind from/ knotsBaromVisibWave heightAir tempDewpointWater temp
2014-Oct-25 16:29N 52°37' E 004°16'1414.7
2014-Oct-25 15:33N 52°28' E 004°33'1 1.3
2014-Oct-25 14:32N 52°28' E 004°35'0 0.0
2014-Oct-25 13:32N 52°28' E 004°35'0 0.0
2014-Oct-25 12:32N 52°28' E 004°35'0 0.0
2014-Oct-25 11:32N 52°28' E 004°35'0 0.0
2014-Oct-25 10:32N 52°28' E 004°35'0 0.0
2014-Oct-25 09:32N 52°28' E 004°35'0 0.0
2014-Oct-25 08:32N 52°28' E 004°35'0 0.0
2014-Oct-25 07:33N 52°28' E 004°35'1211.7
2014-Oct-25 06:33N 52°35' E 004°19'2517.6
2014-Oct-25 05:07N 52°51' E 003°48'1017.8
2014-Oct-25 04:33N 52°57' E 003°35'12417.5
2014-Oct-24 21:28N 54°11' E 000°48'1617.3
2014-Oct-24 20:33N 54°20' E 000°25'1817.5
2014-Oct-24 19:33N 54°29' W 000°00'1817.9
2014-Oct-24 18:33N 54°39' W 000°26'2018.4
2014-Oct-24 17:29N 54°50' W 000°55'1818.8
2014-Oct-24 16:30N 54°60' W 001°21'4 0.4
2014-Oct-24 07:22N 54°58' W 001°15'1417.8
2014-Oct-24 06:33N 54°51' W 000°54'1917.3
2014-Oct-24 05:29N 54°41' W 000°27'1415.2
2014-Oct-24 04:34N 54°33' W 000°07'1414.2
2014-Oct-24 03:34N 54°25' E 000°13'1414.2
2014-Oct-24 02:32N 54°17' E 000°34'16716.5
2014-Oct-23 16:26N 52°36' E 004°18'1314.9
2014-Oct-23 15:33N 52°28' E 004°35'0 0.4
2014-Oct-23 14:31N 52°28' E 004°35'0 0.0
2014-Oct-23 13:31N 52°28' E 004°35'0 0.0
2014-Oct-23 12:31N 52°28' E 004°35'0 0.0
2014-Oct-23 11:31N 52°28' E 004°35'0 0.0
2014-Oct-23 10:31N 52°28' E 004°35'0 0.0
2014-Oct-23 09:31N 52°28' E 004°35'0 0.0
2014-Oct-23 08:31N 52°28' E 004°35'0 0.0
2014-Oct-23 07:33N 52°28' E 004°35'1111.0
2014-Oct-23 06:33N 52°34' E 004°20'1716.9
2014-Oct-23 05:33N 52°45' E 003°59'1817.7
2014-Oct-23 04:32N 52°57' E 003°36'12618.0
2014-Oct-22 21:33N 54°12' E 000°47'1716.8
2014-Oct-22 20:33N 54°21' E 000°22'1717.0
2014-Oct-22 19:33N 54°30' W 000°02'1717.2
2014-Oct-22 18:33N 54°39' W 000°27'1817.6
2014-Oct-22 17:33N 54°49' W 000°53'1817.8
2014-Oct-22 16:33N 54°59' W 001°19'14 1.9
2014-Oct-22 09:26N 54°50' W 001°00'2619.1
2014-Oct-22 08:06N 54°32' W 000°29'1019.1
2014-Oct-22 07:34N 54°25' W 000°17'1918.6
2014-Oct-22 06:33N 54°10' E 000°03'1717.2
2014-Oct-22 05:33N 53°57' E 000°23'1515.2
2014-Oct-22 04:33N 53°46' E 000°39'4615.1
2014-Oct-22 01:29N 53°08' E 001°24'1617.4
2014-Oct-22 00:33N 52°54' E 001°39'8312.7
2014-Oct-21 18:04N 52°32' E 003°50'714.5
2014-Oct-21 17:33N 52°31' E 004°02'1414.3
2014-Oct-21 16:34N 52°29' E 004°25'6 5.6
2014-Oct-21 15:29N 52°28' E 004°35'0 0.0
2014-Oct-21 14:32N 52°28' E 004°35'0 0.0
2014-Oct-21 13:32N 52°28' E 004°35'0 0.0
2014-Oct-21 12:32N 52°28' E 004°35'0 0.0
2014-Oct-21 11:32N 52°28' E 004°35'0 0.0
2014-Oct-21 10:32N 52°28' E 004°35'0 0.0
2014-Oct-21 09:32N 52°28' E 004°35'0 0.0
2014-Oct-21 08:32N 52°28' E 004°35'0 0.0
2014-Oct-21 07:33N 52°28' E 004°35'8 8.2
2014-Oct-21 06:33N 52°32' E 004°23'16417.9
2014-Oct-20 21:23N 54°12' E 000°46'1417.1
2014-Oct-20 20:33N 54°20' E 000°26'1717.2
2014-Oct-20 19:33N 54°29' E 000°01'1717.3
2014-Oct-20 18:33N 54°39' W 000°24'1817.6
2014-Oct-20 17:33N 54°48' W 000°50'1817.8
2014-Oct-20 16:32N 54°58' W 001°16'2 0.3
2014-Oct-20 07:15N 54°57' W 001°12'1014.9
2014-Oct-20 06:33N 54°52' W 000°57'1915.2
2014-Oct-20 05:17N 54°41' W 000°29'1115.3
2014-Oct-20 04:33N 54°35' W 000°13'1717.0
2014-Oct-20 03:33N 54°26' E 000°11'1716.6
2014-Oct-20 02:33N 54°16' E 000°35'16216.2
2014-Oct-19 16:33N 52°39' E 004°12'1515.2
2014-Oct-19 15:34N 52°28' E 004°31'3 2.8
2014-Oct-19 14:31N 52°28' E 004°35'0 0.0
2014-Oct-19 13:31N 52°28' E 004°35'0 0.0
2014-Oct-19 12:31N 52°28' E 004°35'0 0.0
2014-Oct-19 11:28N 52°28' E 004°35'0 0.0
2014-Oct-19 10:28N 52°28' E 004°35'0 0.0
2014-Oct-19 09:31N 52°28' E 004°35'0 0.0
2014-Oct-19 08:31N 52°28' E 004°35'1 0.9
2014-Oct-19 07:34N 52°28' E 004°34'1514.7
2014-Oct-19 06:34N 52°37' E 004°15'236159.8
2014-Oct-19 05:05N 54°56' W 001°09'7810.2
2014-Oct-18 21:29N 54°13' E 000°43'1617.1
2014-Oct-18 20:34N 54°22' E 000°21'1716.9
2014-Oct-18 19:33N 54°31' W 000°04'1717.0
2014-Oct-18 18:34N 54°40' W 000°28'1717.1
2014-Oct-18 17:33N 54°50' W 000°53'1717.2
2014-Oct-18 16:32N 54°59' W 001°19'5 0.5
2014-Oct-18 07:16N 54°57' W 001°11'1216.6
2014-Oct-18 06:33N 54°51' W 000°55'1918.5
2014-Oct-18 05:31N 54°40' W 000°27'1818.6
2014-Oct-18 04:33N 54°30' W 000°01'1818.1
2014-Oct-18 03:33N 54°20' E 000°25'15815.8
2014-Oct-17 17:33N 52°46' E 003°58'1515.1
2014-Oct-17 16:33N 52°36' E 004°16'1413.8
2014-Oct-17 15:33N 52°28' E 004°34'0 0.4
2014-Oct-17 14:33N 52°28' E 004°35'0 0.0
2014-Oct-17 13:33N 52°28' E 004°35'0 0.0
2014-Oct-17 12:33N 52°28' E 004°35'0 0.0
2014-Oct-17 11:33N 52°28' E 004°35'0 0.0
2014-Oct-17 10:33N 52°28' E 004°35'0 0.0
2014-Oct-17 09:33N 52°28' E 004°35'0 0.0
2014-Oct-17 08:33N 52°28' E 004°35'0 0.0
2014-Oct-17 07:34N 52°28' E 004°35'1212.1
2014-Oct-17 06:33N 52°35' E 004°19'1717.2
2014-Oct-17 05:33N 52°47' E 003°58'14518.2
2014-Oct-16 21:33N 54°14' E 000°43'1818.2
2014-Oct-16 20:33N 54°24' E 000°17'1818.0
2014-Oct-16 19:33N 54°33' W 000°10'1817.8
2014-Oct-16 18:33N 54°43' W 000°36'1919.4
2014-Oct-16 17:33N 54°53' W 001°04'3 0.3
2014-Oct-16 07:14N 54°56' W 001°08'1217.8
2014-Oct-16 06:33N 54°49' W 000°51'1818.0
2014-Oct-16 05:33N 54°39' W 000°25'1818.3
2014-Oct-16 04:33N 54°29' E 000°01'1918.6
2014-Oct-16 03:33N 54°19' E 000°28'1716.7
2014-Oct-16 02:33N 54°10' E 000°52'13815.3
2014-Oct-15 17:33N 52°47' E 003°57'1515.1
2014-Oct-15 16:33N 52°37' E 004°16'  

Dump ship's entire track history